KPMU

Details ICAO KPMU
Name PANOLA CO
Region United States
Timezone America/Chicago (UTC-6.0)
Plans Departing 1
Arriving 0
Stats Elevation 221 ft / 67 m (AMSL)
Location 34.363472° -89.892557°
Runways 1
Magnetic Variation 1.353° W
Sunrise 2017-12-14 12:59:28 UTC / 2017-12-14 06:59:28 Local
Sunset 2017-12-14 22:52:04 UTC / 2017-12-14 16:52:04 Local
Advertisement - Login to hide

Runways

ID Width Length Bearing (true) Bearing (mag) Surface Threshold Offset Overrun Length
01 75 ft / 23 m 5,012 ft / 1,528 m 11.82° 13.17° Asphalt 600 ft / 183 m 0 ft / 0 m
19 75 ft / 23 m 5,012 ft / 1,528 m 191.82° 193.17° Asphalt 0 ft / 0 m 0 ft / 0 m

Map

Weather


0- 5 10 15 20 25 30 35+ Temperature / ° C

Clouds and Precipitation
Forecast for 2017-12-15 00:00 UTC. Updated an hour ago

Ground ~20,000 ft ~40,000 ft Winds

METAR

KPMU 142035Z AUTO 36004KT 10SM CLR 12/M03 A3000 RMK AO2 T01221028

TAF

Not found

Frequencies

Unicom 122.80 MHz CTAF/UNICOM
Warning: Do not use this data for real-world aviation or navigation. No guarantee of current accuracy is given.